PWSweather.com
Personal Weather Stations
Station Observations
ASHURSTBR1
New Forest, TottonGB SO40 7EA

New ForestTottonGB SO40 7EA

Lat: 50.9097024, Lon: -1.5111684999999397

Elevation: 27

Station Type: Davis VP2 Plus

Latest ConditionsUpdated 2:30:00 PM GMT Tuesday, Jul 23, 2019
Currently Today's Max Today's Min Today's Average
Temperature 87.0°F30.6°C 87.0°F30.6°C 56.3°F13.5°C 69.2°F20.7°C
Dew Point 63.1°F17.3°C 67.2°F19.6°C 54.0°F12.2°C 60.4°F15.8°C
Winds 5.0 mph SE8.0 kmh SE 6.0 mph -9.7 kmh - - 1.3 mph 2.1 kmh
Wind Gusts 12.0 mph19.3 kmh 14.0 mph22.5 kmh - -
Humidity 45% 95% 41% 77%
Pressure 29.93 in1013.5 mb 30.13 in1020.3 mb 29.93 in1013.5 mb -
Hour Temp Dew Point Humidity Winds Wind Gusts Pressure Precip Precip Rate Daily Precip Total
02:30 PM 87.0°F30.6°C 63.1°F17.3°C 45% 5.0 mph SE8.0 kmh SE 12.0 mph19.3 kmh 29.93 in1013.5 mb 0.00 in0.0 mm 0.00 in0.0 mm 0.00 in0.0 mm
02:15 PM 86.5°F30.3°C 63.3°F17.4°C 46% 4.0 mph ESE6.4 kmh ESE 12.0 mph19.3 kmh 29.94 in1013.9 mb 0.00 in0.0 mm 0.00 in0.0 mm 0.00 in0.0 mm
02:00 PM 86.5°F30.3°C 61.3°F16.3°C 43% 6.0 mph SE9.7 kmh SE 14.0 mph22.5 kmh 29.95 in1014.2 mb 0.00 in0.0 mm 0.00 in0.0 mm 0.00 in0.0 mm
01:45 PM 86.6°F30.3°C 61.4°F16.3°C 43% 5.0 mph SE8.0 kmh SE 14.0 mph22.5 kmh 29.95 in1014.2 mb 0.00 in0.0 mm 0.00 in0.0 mm 0.00 in0.0 mm
01:30 PM 86.9°F30.5°C 60.4°F15.8°C 41% 4.0 mph SE6.4 kmh SE 10.0 mph16.1 kmh 29.96 in1014.6 mb 0.00 in0.0 mm 0.00 in0.0 mm 0.00 in0.0 mm
01:15 PM 86.7°F30.4°C 62.2°F16.8°C 44% 4.0 mph SE6.4 kmh SE 10.0 mph16.1 kmh 29.96 in1014.6 mb 0.00 in0.0 mm 0.00 in0.0 mm 0.00 in0.0 mm
01:00 PM 86.1°F30.1°C 63.5°F17.5°C 47% 3.0 mph SE4.8 kmh SE 9.0 mph14.5 kmh 29.97 in1014.9 mb 0.00 in0.0 mm 0.00 in0.0 mm 0.00 in0.0 mm
12:45 PM 86.3°F30.2°C 63.1°F17.3°C 46% 4.0 mph SE6.4 kmh SE 14.0 mph22.5 kmh 29.97 in1014.9 mb 0.00 in0.0 mm 0.00 in0.0 mm 0.00 in0.0 mm
12:30 PM 85.9°F29.9°C 62.7°F17.1°C 46% 3.0 mph ESE4.8 kmh ESE 11.0 mph17.7 kmh 29.98 in1015.2 mb 0.00 in0.0 mm 0.00 in0.0 mm 0.00 in0.0 mm
12:15 PM 85.3°F29.6°C 62.2°F16.8°C 46% 4.0 mph SE6.4 kmh SE 10.0 mph16.1 kmh 29.98 in1015.2 mb 0.00 in0.0 mm 0.00 in0.0 mm 0.00 in0.0 mm
12:00 PM 85.0°F29.4°C 66.0°F18.9°C 53% 3.0 mph SE4.8 kmh SE 10.0 mph16.1 kmh 29.99 in1015.6 mb 0.00 in0.0 mm 0.00 in0.0 mm 0.00 in0.0 mm
11:45 AM 84.4°F29.1°C 66.5°F19.2°C 55% 3.0 mph SE4.8 kmh SE 8.0 mph12.9 kmh 29.99 in1015.6 mb 0.00 in0.0 mm 0.00 in0.0 mm 0.00 in0.0 mm
11:30 AM 83.8°F28.8°C 66.4°F19.1°C 56% 3.0 mph SE4.8 kmh SE 12.0 mph19.3 kmh 29.99 in1015.6 mb 0.00 in0.0 mm 0.00 in0.0 mm 0.00 in0.0 mm
11:15 AM 83.3°F28.5°C 66.5°F19.2°C 57% 4.0 mph SSE6.4 kmh SSE 10.0 mph16.1 kmh 30.00 in1015.9 mb 0.00 in0.0 mm 0.00 in0.0 mm 0.00 in0.0 mm
11:00 AM 83.0°F28.3°C 66.2°F19.0°C 57% 2.0 mph SE3.2 kmh SE 10.0 mph16.1 kmh 30.00 in1015.9 mb 0.00 in0.0 mm 0.00 in0.0 mm 0.00 in0.0 mm
10:45 AM 82.3°F27.9°C 66.5°F19.2°C 59% 2.0 mph ESE3.2 kmh ESE 8.0 mph12.9 kmh 30.00 in1015.9 mb 0.00 in0.0 mm 0.00 in0.0 mm 0.00 in0.0 mm
10:30 AM 81.0°F27.2°C 67.2°F19.6°C 63% 3.0 mph E4.8 kmh E 10.0 mph16.1 kmh 30.01 in1016.3 mb 0.00 in0.0 mm 0.00 in0.0 mm 0.00 in0.0 mm
10:15 AM 80.3°F26.8°C 65.1°F18.4°C 60% 3.0 mph SE4.8 kmh SE 12.0 mph19.3 kmh 30.02 in1016.6 mb 0.00 in0.0 mm 0.00 in0.0 mm 0.00 in0.0 mm
10:00 AM 79.7°F26.5°C 66.0°F18.9°C 63% 2.0 mph E3.2 kmh E 9.0 mph14.5 kmh 30.02 in1016.6 mb 0.00 in0.0 mm 0.00 in0.0 mm 0.00 in0.0 mm
09:45 AM 79.1°F26.2°C 65.9°F18.8°C 64% 3.0 mph SSE4.8 kmh SSE 9.0 mph14.5 kmh 30.02 in1016.6 mb 0.00 in0.0 mm 0.00 in0.0 mm 0.00 in0.0 mm
09:30 AM 77.9°F25.5°C 66.9°F19.4°C 69% 1.0 mph SE1.6 kmh SE 7.0 mph11.3 kmh 30.02 in1016.6 mb 0.00 in0.0 mm 0.00 in0.0 mm 0.00 in0.0 mm
09:15 AM 76.4°F24.7°C 66.7°F19.3°C 72% 1.0 mph SE1.6 kmh SE 6.0 mph9.7 kmh 30.03 in1016.9 mb 0.00 in0.0 mm 0.00 in0.0 mm 0.00 in0.0 mm
09:00 AM 75.2°F24.0°C 66.3°F19.1°C 74% 2.0 mph SE3.2 kmh SE 7.0 mph11.3 kmh 30.03 in1016.9 mb 0.00 in0.0 mm 0.00 in0.0 mm 0.00 in0.0 mm
08:45 AM 73.7°F23.2°C 65.7°F18.7°C 76% 1.0 mph SE1.6 kmh SE 6.0 mph9.7 kmh 30.03 in1016.9 mb 0.00 in0.0 mm 0.00 in0.0 mm 0.00 in0.0 mm
08:30 AM 72.0°F22.2°C 65.5°F18.6°C 80% 1.0 mph E1.6 kmh E 7.0 mph11.3 kmh 30.04 in1017.3 mb 0.00 in0.0 mm 0.00 in0.0 mm 0.00 in0.0 mm
08:15 AM 70.1°F21.2°C 65.0°F18.3°C 84% Calm Calm 1.0 mph1.6 kmh 30.04 in1017.3 mb 0.00 in0.0 mm 0.00 in0.0 mm 0.00 in0.0 mm
08:00 AM 67.5°F19.7°C 64.5°F18.1°C 90% Calm Calm -- 30.04 in1017.3 mb 0.00 in0.0 mm 0.00 in0.0 mm 0.00 in0.0 mm
07:45 AM 65.3°F18.5°C 63.8°F17.7°C 95% Calm Calm -- 30.05 in1017.6 mb 0.00 in0.0 mm 0.00 in0.0 mm 0.00 in0.0 mm
07:30 AM 63.0°F17.2°C 61.2°F16.2°C 94% Calm Calm -- 30.06 in1017.9 mb 0.00 in0.0 mm 0.00 in0.0 mm 0.00 in0.0 mm
07:15 AM 62.0°F16.7°C 60.3°F15.7°C 94% Calm Calm -- 30.06 in1017.9 mb 0.00 in0.0 mm 0.00 in0.0 mm 0.00 in0.0 mm
07:00 AM 61.5°F16.4°C 59.8°F15.4°C 94% Calm Calm 1.0 mph1.6 kmh 30.07 in1018.3 mb 0.00 in0.0 mm 0.00 in0.0 mm 0.00 in0.0 mm
06:45 AM 61.0°F16.1°C 59.3°F15.2°C 94% Calm Calm -- 30.07 in1018.3 mb 0.00 in0.0 mm 0.00 in0.0 mm 0.00 in0.0 mm
06:30 AM 60.7°F15.9°C 59.0°F15.0°C 94% Calm Calm -- 30.07 in1018.3 mb 0.00 in0.0 mm 0.00 in0.0 mm 0.00 in0.0 mm
06:15 AM 60.6°F15.9°C 58.9°F14.9°C 94% Calm Calm -- 30.07 in1018.3 mb 0.00 in0.0 mm 0.00 in0.0 mm 0.00 in0.0 mm
06:00 AM 60.4°F15.8°C 58.7°F14.8°C 94% Calm Calm -- 30.08 in1018.6 mb 0.00 in0.0 mm 0.00 in0.0 mm 0.00 in0.0 mm
05:45 AM 60.2°F15.7°C 58.5°F14.7°C 94% Calm Calm -- 30.09 in1019.0 mb 0.00 in0.0 mm 0.00 in0.0 mm 0.00 in0.0 mm
05:30 AM 60.0°F15.6°C 58.3°F14.6°C 94% Calm Calm -- 30.09 in1019.0 mb 0.00 in0.0 mm 0.00 in0.0 mm 0.00 in0.0 mm
05:15 AM 59.7°F15.4°C 58.0°F14.4°C 94% Calm Calm -- 30.09 in1019.0 mb 0.00 in0.0 mm 0.00 in0.0 mm 0.00 in0.0 mm
05:00 AM 59.3°F15.2°C 57.6°F14.2°C 94% Calm Calm -- 30.09 in1019.0 mb 0.00 in0.0 mm 0.00 in0.0 mm 0.00 in0.0 mm
04:45 AM 58.6°F14.8°C 56.9°F13.8°C 94% Calm Calm -- 30.09 in1019.0 mb 0.00 in0.0 mm 0.00 in0.0 mm 0.00 in0.0 mm
04:30 AM 58.2°F14.6°C 56.5°F13.6°C 94% Calm Calm -- 30.09 in1019.0 mb 0.00 in0.0 mm 0.00 in0.0 mm 0.00 in0.0 mm
04:15 AM 57.9°F14.4°C 56.2°F13.4°C 94% Calm Calm -- 30.09 in1019.0 mb 0.00 in0.0 mm 0.00 in0.0 mm 0.00 in0.0 mm
04:00 AM 57.5°F14.2°C 55.8°F13.2°C 94% Calm Calm -- 30.09 in1019.0 mb 0.00 in0.0 mm 0.00 in0.0 mm 0.00 in0.0 mm
03:45 AM 57.2°F14.0°C 55.5°F13.1°C 94% Calm Calm -- 30.10 in1019.3 mb 0.00 in0.0 mm 0.00 in0.0 mm 0.00 in0.0 mm
03:30 AM 56.9°F13.8°C 54.9°F12.7°C 93% Calm Calm -- 30.10 in1019.3 mb 0.00 in0.0 mm 0.00 in0.0 mm 0.00 in0.0 mm
03:15 AM 56.7°F13.7°C 54.7°F12.6°C 93% Calm Calm -- 30.10 in1019.3 mb 0.00 in0.0 mm 0.00 in0.0 mm 0.00 in0.0 mm
03:00 AM 56.5°F13.6°C 54.5°F12.5°C 93% Calm Calm -- 30.10 in1019.3 mb 0.00 in0.0 mm 0.00 in0.0 mm 0.00 in0.0 mm
02:45 AM 56.3°F13.5°C 54.0°F12.2°C 92% Calm Calm -- 30.11 in1019.6 mb 0.00 in0.0 mm 0.00 in0.0 mm 0.00 in0.0 mm
02:30 AM 56.4°F13.6°C 54.1°F12.3°C 92% Calm Calm -- 30.11 in1019.6 mb 0.00 in0.0 mm 0.00 in0.0 mm 0.00 in0.0 mm
02:15 AM 56.8°F13.8°C 54.5°F12.5°C 92% Calm Calm -- 30.12 in1020.0 mb 0.00 in0.0 mm 0.00 in0.0 mm 0.00 in0.0 mm
02:00 AM 57.2°F14.0°C 54.9°F12.7°C 92% Calm Calm -- 30.11 in1019.6 mb 0.00 in0.0 mm 0.00 in0.0 mm 0.00 in0.0 mm
01:45 AM 57.5°F14.2°C 55.2°F12.9°C 92% Calm Calm -- 30.12 in1020.0 mb 0.00 in0.0 mm 0.00 in0.0 mm 0.00 in0.0 mm
01:30 AM 57.6°F14.2°C 55.3°F12.9°C 92% Calm Calm -- 30.12 in1020.0 mb 0.00 in0.0 mm 0.00 in0.0 mm 0.00 in0.0 mm
01:15 AM 57.9°F14.4°C 55.6°F13.1°C 92% Calm Calm -- 30.12 in1020.0 mb 0.00 in0.0 mm 0.00 in0.0 mm 0.00 in0.0 mm
01:00 AM 58.0°F14.4°C 55.7°F13.2°C 92% Calm Calm -- 30.13 in1020.3 mb 0.00 in0.0 mm 0.00 in0.0 mm 0.00 in0.0 mm
12:45 AM 57.7°F14.3°C 55.4°F13.0°C 92% Calm Calm -- 30.13 in1020.3 mb 0.00 in0.0 mm 0.00 in0.0 mm 0.00 in0.0 mm
12:30 AM 57.5°F14.2°C 54.9°F12.7°C 91% Calm Calm -- 30.13 in1020.3 mb 0.00 in0.0 mm 0.00 in0.0 mm 0.00 in0.0 mm
12:15 AM 57.8°F14.3°C 55.2°F12.9°C 91% Calm Calm -- 30.13 in1020.3 mb 0.00 in0.0 mm 0.00 in0.0 mm 0.00 in0.0 mm
12:00 AM 58.3°F14.6°C 55.7°F13.2°C 91% Calm Calm -- 30.13 in1020.3 mb 0.00 in0.0 mm 0.00 in0.0 mm 0.00 in0.0 mm